sensor_id;sensor_type;location;lat;lon;timestamp;temperature;humidity
21772;DHT22;11047;47.904;8.110;2022-07-29T00:01:51;15.40;99.90
21772;DHT22;11047;47.904;8.110;2022-07-29T00:04:18;15.40;99.90
21772;DHT22;11047;47.904;8.110;2022-07-29T00:06:45;15.40;99.90
21772;DHT22;11047;47.904;8.110;2022-07-29T00:09:14;15.30;99.90
21772;DHT22;11047;47.904;8.110;2022-07-29T00:11:41;15.30;99.90
21772;DHT22;11047;47.904;8.110;2022-07-29T00:14:08;15.30;99.90
21772;DHT22;11047;47.904;8.110;2022-07-29T00:16:35;15.40;99.90
21772;DHT22;11047;47.904;8.110;2022-07-29T00:19:02;15.20;99.90
21772;DHT22;11047;47.904;8.110;2022-07-29T00:21:29;15.20;99.90
21772;DHT22;11047;47.904;8.110;2022-07-29T00:23:56;15.10;99.90
21772;DHT22;11047;47.904;8.110;2022-07-29T00:26:24;14.90;99.90
21772;DHT22;11047;47.904;8.110;2022-07-29T00:28:53;15.00;99.90
21772;DHT22;11047;47.904;8.110;2022-07-29T00:31:20;15.20;99.90
21772;DHT22;11047;47.904;8.110;2022-07-29T00:33:47;15.20;99.90
21772;DHT22;11047;47.904;8.110;2022-07-29T00:36:13;15.30;99.90
21772;DHT22;11047;47.904;8.110;2022-07-29T00:38:39;15.20;99.90
21772;DHT22;11047;47.904;8.110;2022-07-29T00:41:09;15.10;99.90
21772;DHT22;11047;47.904;8.110;2022-07-29T00:43:37;15.10;99.90
21772;DHT22;11047;47.904;8.110;2022-07-29T00:46:05;15.20;99.90
21772;DHT22;11047;47.904;8.110;2022-07-29T00:48:32;15.20;99.90
21772;DHT22;11047;47.904;8.110;2022-07-29T00:51:00;15.20;99.90
21772;DHT22;11047;47.904;8.110;2022-07-29T00:53:27;15.10;99.90
21772;DHT22;11047;47.904;8.110;2022-07-29T00:55:54;15.00;99.90
21772;DHT22;11047;47.904;8.110;2022-07-29T00:58:22;15.00;99.90
21772;DHT22;11047;47.904;8.110;2022-07-29T01:00:50;14.90;99.90
21772;DHT22;11047;47.904;8.110;2022-07-29T01:03:18;14.80;99.90
21772;DHT22;11047;47.904;8.110;2022-07-29T01:05:45;14.70;99.90
21772;DHT22;11047;47.904;8.110;2022-07-29T01:08:14;14.90;99.90
21772;DHT22;11047;47.904;8.110;2022-07-29T01:10:42;14.90;99.90
21772;DHT22;11047;47.904;8.110;2022-07-29T01:13:10;14.80;99.90
21772;DHT22;11047;47.904;8.110;2022-07-29T01:15:43;14.70;99.90
21772;DHT22;11047;47.904;8.110;2022-07-29T01:18:17;14.60;99.90
21772;DHT22;11047;47.904;8.110;2022-07-29T01:20:50;14.60;99.90
21772;DHT22;11047;47.904;8.110;2022-07-29T01:23:46;14.50;99.90
21772;DHT22;11047;47.904;8.110;2022-07-29T01:26:33;14.50;99.90
21772;DHT22;11047;47.904;8.110;2022-07-29T01:29:12;14.50;99.90
21772;DHT22;11047;47.904;8.110;2022-07-29T01:31:45;14.60;99.90
21772;DHT22;11047;47.904;8.110;2022-07-29T01:34:20;14.70;99.90
21772;DHT22;11047;47.904;8.110;2022-07-29T01:36:48;14.70;99.90
21772;DHT22;11047;47.904;8.110;2022-07-29T01:39:19;14.70;99.90
21772;DHT22;11047;47.904;8.110;2022-07-29T01:41:53;14.60;99.90
21772;DHT22;11047;47.904;8.110;2022-07-29T01:44:28;14.50;99.90
21772;DHT22;11047;47.904;8.110;2022-07-29T01:47:00;14.30;99.90
21772;DHT22;11047;47.904;8.110;2022-07-29T01:49:31;14.20;99.90
21772;DHT22;11047;47.904;8.110;2022-07-29T01:52:01;14.20;99.90
21772;DHT22;11047;47.904;8.110;2022-07-29T01:54:35;14.20;99.90
21772;DHT22;11047;47.904;8.110;2022-07-29T01:57:05;14.10;99.90
21772;DHT22;11047;47.904;8.110;2022-07-29T01:59:35;14.00;99.90
21772;DHT22;11047;47.904;8.110;2022-07-29T02:02:03;14.10;99.90
21772;DHT22;11047;47.904;8.110;2022-07-29T02:04:32;14.30;99.90
21772;DHT22;11047;47.904;8.110;2022-07-29T02:07:02;14.20;99.90
21772;DHT22;11047;47.904;8.110;2022-07-29T02:09:32;14.10;99.90
21772;DHT22;11047;47.904;8.110;2022-07-29T02:12:00;14.10;99.90
21772;DHT22;11047;47.904;8.110;2022-07-29T02:14:31;14.20;99.90
21772;DHT22;11047;47.904;8.110;2022-07-29T02:17:02;14.20;99.90
21772;DHT22;11047;47.904;8.110;2022-07-29T02:19:30;14.10;99.90
21772;DHT22;11047;47.904;8.110;2022-07-29T02:21:59;14.00;99.90
21772;DHT22;11047;47.904;8.110;2022-07-29T02:24:26;14.10;99.90
21772;DHT22;11047;47.904;8.110;2022-07-29T02:26:55;14.10;99.90
21772;DHT22;11047;47.904;8.110;2022-07-29T02:29:25;14.00;99.90
21772;DHT22;11047;47.904;8.110;2022-07-29T02:31:54;14.00;99.90
21772;DHT22;11047;47.904;8.110;2022-07-29T02:34:23;13.90;99.90
21772;DHT22;11047;47.904;8.110;2022-07-29T02:36:51;13.90;99.90
21772;DHT22;11047;47.904;8.110;2022-07-29T02:39:19;13.80;99.90
21772;DHT22;11047;47.904;8.110;2022-07-29T02:41:48;13.70;99.90
21772;DHT22;11047;47.904;8.110;2022-07-29T02:44:16;13.70;99.90
21772;DHT22;11047;47.904;8.110;2022-07-29T02:46:49;13.70;99.90
21772;DHT22;11047;47.904;8.110;2022-07-29T02:49:22;13.70;99.90
21772;DHT22;11047;47.904;8.110;2022-07-29T02:51:59;13.70;99.90
21772;DHT22;11047;47.904;8.110;2022-07-29T02:54:33;13.70;99.90
21772;DHT22;11047;47.904;8.110;2022-07-29T02:57:04;13.80;99.90
21772;DHT22;11047;47.904;8.110;2022-07-29T02:59:34;13.80;99.90
21772;DHT22;11047;47.904;8.110;2022-07-29T03:02:03;13.70;99.90
21772;DHT22;11047;47.904;8.110;2022-07-29T03:04:32;13.70;99.90
21772;DHT22;11047;47.904;8.110;2022-07-29T03:07:02;13.70;99.90
21772;DHT22;11047;47.904;8.110;2022-07-29T03:09:30;13.60;99.90
21772;DHT22;11047;47.904;8.110;2022-07-29T03:11:57;13.50;99.90
21772;DHT22;11047;47.904;8.110;2022-07-29T03:14:24;13.50;99.90
21772;DHT22;11047;47.904;8.110;2022-07-29T03:16:52;13.50;99.90
21772;DHT22;11047;47.904;8.110;2022-07-29T03:19:20;13.50;99.90
21772;DHT22;11047;47.904;8.110;2022-07-29T03:21:47;13.50;99.90
21772;DHT22;11047;47.904;8.110;2022-07-29T03:24:30;13.60;99.90
21772;DHT22;11047;47.904;8.110;2022-07-29T03:26:57;13.60;99.90
21772;DHT22;11047;47.904;8.110;2022-07-29T03:29:25;13.70;99.90
21772;DHT22;11047;47.904;8.110;2022-07-29T03:31:52;13.70;99.90
21772;DHT22;11047;47.904;8.110;2022-07-29T03:34:19;13.70;99.90
21772;DHT22;11047;47.904;8.110;2022-07-29T03:36:47;13.60;99.90
21772;DHT22;11047;47.904;8.110;2022-07-29T03:39:17;13.60;99.90
21772;DHT22;11047;47.904;8.110;2022-07-29T03:41:48;13.50;99.90
21772;DHT22;11047;47.904;8.110;2022-07-29T03:44:17;13.50;99.90
21772;DHT22;11047;47.904;8.110;2022-07-29T03:46:46;13.50;99.90
21772;DHT22;11047;47.904;8.110;2022-07-29T03:49:15;13.40;99.90
21772;DHT22;11047;47.904;8.110;2022-07-29T03:51:42;13.40;99.90
21772;DHT22;11047;47.904;8.110;2022-07-29T03:54:09;13.20;99.90
21772;DHT22;11047;47.904;8.110;2022-07-29T03:56:39;13.20;99.90
21772;DHT22;11047;47.904;8.110;2022-07-29T03:59:08;13.30;99.90
21772;DHT22;11047;47.904;8.110;2022-07-29T04:01:37;13.20;99.90
21772;DHT22;11047;47.904;8.110;2022-07-29T04:04:05;13.30;99.90
21772;DHT22;11047;47.904;8.110;2022-07-29T04:06:38;13.30;99.90
21772;DHT22;11047;47.904;8.110;2022-07-29T04:09:05;13.30;99.90
21772;DHT22;11047;47.904;8.110;2022-07-29T04:11:33;13.30;99.90
21772;DHT22;11047;47.904;8.110;2022-07-29T04:14:00;13.30;99.90
21772;DHT22;11047;47.904;8.110;2022-07-29T04:16:28;13.40;99.90
21772;DHT22;11047;47.904;8.110;2022-07-29T04:18:55;13.40;99.90
21772;DHT22;11047;47.904;8.110;2022-07-29T04:21:22;13.40;99.90
21772;DHT22;11047;47.904;8.110;2022-07-29T04:23:49;13.50;99.90
21772;DHT22;11047;47.904;8.110;2022-07-29T04:26:16;13.50;99.90
21772;DHT22;11047;47.904;8.110;2022-07-29T04:28:43;13.60;99.90
21772;DHT22;11047;47.904;8.110;2022-07-29T04:31:11;13.60;99.90
21772;DHT22;11047;47.904;8.110;2022-07-29T04:33:39;13.50;99.90
21772;DHT22;11047;47.904;8.110;2022-07-29T04:36:06;13.50;99.90
21772;DHT22;11047;47.904;8.110;2022-07-29T04:38:33;13.60;99.90
21772;DHT22;11047;47.904;8.110;2022-07-29T04:41:00;13.60;99.90
21772;DHT22;11047;47.904;8.110;2022-07-29T04:43:27;13.60;99.90
21772;DHT22;11047;47.904;8.110;2022-07-29T04:45:54;13.70;99.90
21772;DHT22;11047;47.904;8.110;2022-07-29T04:48:21;13.80;99.90
21772;DHT22;11047;47.904;8.110;2022-07-29T04:50:49;13.90;99.90
21772;DHT22;11047;47.904;8.110;2022-07-29T04:53:16;14.00;99.90
21772;DHT22;11047;47.904;8.110;2022-07-29T04:55:43;14.00;99.90
21772;DHT22;11047;47.904;8.110;2022-07-29T04:58:11;14.00;99.90
21772;DHT22;11047;47.904;8.110;2022-07-29T05:00:39;14.10;99.90
21772;DHT22;11047;47.904;8.110;2022-07-29T05:03:06;14.20;99.90
21772;DHT22;11047;47.904;8.110;2022-07-29T05:05:33;14.30;99.90
21772;DHT22;11047;47.904;8.110;2022-07-29T05:08:01;14.40;99.90
21772;DHT22;11047;47.904;8.110;2022-07-29T05:10:28;14.60;99.90
21772;DHT22;11047;47.904;8.110;2022-07-29T05:12:55;14.60;99.90
21772;DHT22;11047;47.904;8.110;2022-07-29T05:15:22;14.80;99.90
21772;DHT22;11047;47.904;8.110;2022-07-29T05:17:49;14.90;99.90
21772;DHT22;11047;47.904;8.110;2022-07-29T05:20:15;14.90;99.90
21772;DHT22;11047;47.904;8.110;2022-07-29T05:22:43;15.00;99.90
21772;DHT22;11047;47.904;8.110;2022-07-29T05:25:12;15.10;99.90
21772;DHT22;11047;47.904;8.110;2022-07-29T05:27:38;15.20;99.90
21772;DHT22;11047;47.904;8.110;2022-07-29T05:30:06;15.20;99.90
21772;DHT22;11047;47.904;8.110;2022-07-29T05:32:33;15.20;99.90
21772;DHT22;11047;47.904;8.110;2022-07-29T05:35:00;15.30;99.90
21772;DHT22;11047;47.904;8.110;2022-07-29T05:37:27;15.40;99.90
21772;DHT22;11047;47.904;8.110;2022-07-29T05:39:54;15.50;99.90
21772;DHT22;11047;47.904;8.110;2022-07-29T05:42:23;15.60;99.90
21772;DHT22;11047;47.904;8.110;2022-07-29T05:44:49;15.70;99.90
21772;DHT22;11047;47.904;8.110;2022-07-29T05:47:16;15.80;99.90
21772;DHT22;11047;47.904;8.110;2022-07-29T05:49:43;15.90;99.90
21772;DHT22;11047;47.904;8.110;2022-07-29T05:52:11;15.90;99.90
21772;DHT22;11047;47.904;8.110;2022-07-29T05:54:39;16.00;99.90
21772;DHT22;11047;47.904;8.110;2022-07-29T05:57:06;16.00;99.90
21772;DHT22;11047;47.904;8.110;2022-07-29T05:59:36;16.10;99.90
21772;DHT22;11047;47.904;8.110;2022-07-29T06:02:04;16.20;99.90
21772;DHT22;11047;47.904;8.110;2022-07-29T06:04:30;16.30;99.90
21772;DHT22;11047;47.904;8.110;2022-07-29T06:06:58;16.40;99.90
21772;DHT22;11047;47.904;8.110;2022-07-29T06:09:24;16.50;99.90
21772;DHT22;11047;47.904;8.110;2022-07-29T06:11:52;16.60;99.90
21772;DHT22;11047;47.904;8.110;2022-07-29T06:14:19;16.60;99.90
21772;DHT22;11047;47.904;8.110;2022-07-29T06:16:47;16.70;99.90
21772;DHT22;11047;47.904;8.110;2022-07-29T06:19:14;16.70;99.90
21772;DHT22;11047;47.904;8.110;2022-07-29T06:21:41;16.90;99.90
21772;DHT22;11047;47.904;8.110;2022-07-29T06:24:09;16.90;99.90
21772;DHT22;11047;47.904;8.110;2022-07-29T06:26:37;17.10;99.90
21772;DHT22;11047;47.904;8.110;2022-07-29T06:29:04;17.20;99.90
21772;DHT22;11047;47.904;8.110;2022-07-29T06:31:31;17.40;99.90
21772;DHT22;11047;47.904;8.110;2022-07-29T06:33:59;17.60;99.90
21772;DHT22;11047;47.904;8.110;2022-07-29T06:36:26;17.70;99.90
21772;DHT22;11047;47.904;8.110;2022-07-29T06:38:53;17.80;99.90
21772;DHT22;11047;47.904;8.110;2022-07-29T06:41:20;17.80;99.90
21772;DHT22;11047;47.904;8.110;2022-07-29T06:43:48;17.80;99.90
21772;DHT22;11047;47.904;8.110;2022-07-29T06:46:18;17.80;99.90
21772;DHT22;11047;47.904;8.110;2022-07-29T06:48:45;17.90;99.90
21772;DHT22;11047;47.904;8.110;2022-07-29T06:51:14;17.90;99.90
21772;DHT22;11047;47.904;8.110;2022-07-29T06:53:41;17.90;99.90
21772;DHT22;11047;47.904;8.110;2022-07-29T06:56:09;17.90;99.90
21772;DHT22;11047;47.904;8.110;2022-07-29T06:58:38;18.00;99.90
21772;DHT22;11047;47.904;8.110;2022-07-29T07:01:06;18.00;99.90
21772;DHT22;11047;47.904;8.110;2022-07-29T07:03:33;18.10;99.90
21772;DHT22;11047;47.904;8.110;2022-07-29T07:06:00;18.20;99.90
21772;DHT22;11047;47.904;8.110;2022-07-29T07:08:28;18.50;99.90
21772;DHT22;11047;47.904;8.110;2022-07-29T07:10:55;18.70;99.90
21772;DHT22;11047;47.904;8.110;2022-07-29T07:13:22;18.90;99.90
21772;DHT22;11047;47.904;8.110;2022-07-29T07:15:50;19.10;99.90
21772;DHT22;11047;47.904;8.110;2022-07-29T07:18:18;19.30;99.90
21772;DHT22;11047;47.904;8.110;2022-07-29T07:20:45;19.30;99.90
21772;DHT22;11047;47.904;8.110;2022-07-29T07:23:13;19.40;99.90
21772;DHT22;11047;47.904;8.110;2022-07-29T07:25:41;19.50;99.90
21772;DHT22;11047;47.904;8.110;2022-07-29T07:28:08;19.50;99.90
21772;DHT22;11047;47.904;8.110;2022-07-29T07:30:35;19.40;99.90
21772;DHT22;11047;47.904;8.110;2022-07-29T07:33:03;19.30;99.90
21772;DHT22;11047;47.904;8.110;2022-07-29T07:35:30;19.40;99.90
21772;DHT22;11047;47.904;8.110;2022-07-29T07:37:57;19.30;99.90
21772;DHT22;11047;47.904;8.110;2022-07-29T07:40:24;19.40;99.90
21772;DHT22;11047;47.904;8.110;2022-07-29T07:42:53;19.40;99.90
21772;DHT22;11047;47.904;8.110;2022-07-29T07:45:20;19.60;99.90
21772;DHT22;11047;47.904;8.110;2022-07-29T07:47:47;19.60;99.90
21772;DHT22;11047;47.904;8.110;2022-07-29T07:50:13;19.80;99.90
21772;DHT22;11047;47.904;8.110;2022-07-29T07:52:49;19.90;99.90
21772;DHT22;11047;47.904;8.110;2022-07-29T07:55:16;19.90;99.90
21772;DHT22;11047;47.904;8.110;2022-07-29T07:57:43;20.00;99.90
21772;DHT22;11047;47.904;8.110;2022-07-29T08:00:13;20.10;99.90
21772;DHT22;11047;47.904;8.110;2022-07-29T08:02:41;20.10;99.90
21772;DHT22;11047;47.904;8.110;2022-07-29T08:05:11;20.10;99.90
21772;DHT22;11047;47.904;8.110;2022-07-29T08:07:42;20.10;99.90
21772;DHT22;11047;47.904;8.110;2022-07-29T08:10:09;20.10;99.90
21772;DHT22;11047;47.904;8.110;2022-07-29T08:12:36;20.10;99.90
21772;DHT22;11047;47.904;8.110;2022-07-29T08:15:04;20.10;99.90
21772;DHT22;11047;47.904;8.110;2022-07-29T08:17:34;20.00;99.90
21772;DHT22;11047;47.904;8.110;2022-07-29T08:20:01;19.90;99.90
21772;DHT22;11047;47.904;8.110;2022-07-29T08:22:28;19.90;99.90
21772;DHT22;11047;47.904;8.110;2022-07-29T08:24:55;19.90;99.90
21772;DHT22;11047;47.904;8.110;2022-07-29T08:27:22;20.00;99.90
21772;DHT22;11047;47.904;8.110;2022-07-29T08:29:51;19.90;99.90
21772;DHT22;11047;47.904;8.110;2022-07-29T08:32:18;19.90;99.90
21772;DHT22;11047;47.904;8.110;2022-07-29T08:34:46;19.90;99.90
21772;DHT22;11047;47.904;8.110;2022-07-29T08:37:13;19.90;99.90
21772;DHT22;11047;47.904;8.110;2022-07-29T08:39:40;19.90;99.90
21772;DHT22;11047;47.904;8.110;2022-07-29T08:42:07;20.10;99.90
21772;DHT22;11047;47.904;8.110;2022-07-29T08:44:35;20.00;99.90
21772;DHT22;11047;47.904;8.110;2022-07-29T08:47:03;20.00;99.90
21772;DHT22;11047;47.904;8.110;2022-07-29T08:49:30;20.10;99.90
21772;DHT22;11047;47.904;8.110;2022-07-29T08:51:59;20.10;99.90
21772;DHT22;11047;47.904;8.110;2022-07-29T08:54:27;20.00;99.90
21772;DHT22;11047;47.904;8.110;2022-07-29T08:56:54;19.90;99.90
21772;DHT22;11047;47.904;8.110;2022-07-29T08:59:25;19.90;99.90
21772;DHT22;11047;47.904;8.110;2022-07-29T09:01:53;19.90;99.90
21772;DHT22;11047;47.904;8.110;2022-07-29T09:04:21;19.80;99.90
21772;DHT22;11047;47.904;8.110;2022-07-29T09:06:52;19.80;99.90
21772;DHT22;11047;47.904;8.110;2022-07-29T09:09:21;19.80;99.90
21772;DHT22;11047;47.904;8.110;2022-07-29T09:11:48;19.90;99.90
21772;DHT22;11047;47.904;8.110;2022-07-29T09:14:15;19.90;99.90
21772;DHT22;11047;47.904;8.110;2022-07-29T09:16:47;19.90;99.90
21772;DHT22;11047;47.904;8.110;2022-07-29T09:19:26;20.00;99.90
21772;DHT22;11047;47.904;8.110;2022-07-29T09:21:54;20.10;99.90
21772;DHT22;11047;47.904;8.110;2022-07-29T09:24:37;20.20;99.90
21772;DHT22;11047;47.904;8.110;2022-07-29T09:27:09;20.20;99.90
21772;DHT22;11047;47.904;8.110;2022-07-29T09:29:36;20.30;99.90
21772;DHT22;11047;47.904;8.110;2022-07-29T09:32:08;20.40;99.90
21772;DHT22;11047;47.904;8.110;2022-07-29T09:34:35;20.50;99.90
21772;DHT22;11047;47.904;8.110;2022-07-29T09:37:03;20.40;99.90
21772;DHT22;11047;47.904;8.110;2022-07-29T09:39:33;20.70;99.90
21772;DHT22;11047;47.904;8.110;2022-07-29T09:42:03;20.80;99.90
21772;DHT22;11047;47.904;8.110;2022-07-29T09:44:45;21.10;99.90
21772;DHT22;11047;47.904;8.110;2022-07-29T09:47:14;21.20;99.90
21772;DHT22;11047;47.904;8.110;2022-07-29T09:49:52;21.80;99.90
21772;DHT22;11047;47.904;8.110;2022-07-29T09:52:19;22.60;99.90
21772;DHT22;11047;47.904;8.110;2022-07-29T09:54:48;23.10;99.90
21772;DHT22;11047;47.904;8.110;2022-07-29T09:57:23;23.10;99.90
21772;DHT22;11047;47.904;8.110;2022-07-29T09:59:56;23.10;99.90
21772;DHT22;11047;47.904;8.110;2022-07-29T10:02:28;23.00;99.90
21772;DHT22;11047;47.904;8.110;2022-07-29T10:04:55;22.80;99.90
21772;DHT22;11047;47.904;8.110;2022-07-29T10:07:22;22.80;99.90
21772;DHT22;11047;47.904;8.110;2022-07-29T10:09:57;22.90;99.90
21772;DHT22;11047;47.904;8.110;2022-07-29T10:12:24;22.80;99.90
21772;DHT22;11047;47.904;8.110;2022-07-29T10:14:51;22.90;99.90
21772;DHT22;11047;47.904;8.110;2022-07-29T10:17:18;23.00;99.90
21772;DHT22;11047;47.904;8.110;2022-07-29T10:19:46;22.90;99.90
21772;DHT22;11047;47.904;8.110;2022-07-29T10:22:14;22.90;99.90
21772;DHT22;11047;47.904;8.110;2022-07-29T10:24:42;22.80;99.90
21772;DHT22;11047;47.904;8.110;2022-07-29T10:27:10;22.80;99.90
21772;DHT22;11047;47.904;8.110;2022-07-29T10:29:38;23.00;99.90
21772;DHT22;11047;47.904;8.110;2022-07-29T10:32:20;23.20;99.90
21772;DHT22;11047;47.904;8.110;2022-07-29T10:35:05;23.20;99.90
21772;DHT22;11047;47.904;8.110;2022-07-29T10:38:02;23.40;99.90
21772;DHT22;11047;47.904;8.110;2022-07-29T10:40:39;23.30;99.90
21772;DHT22;11047;47.904;8.110;2022-07-29T10:43:29;23.10;99.90
21772;DHT22;11047;47.904;8.110;2022-07-29T10:46:00;23.20;99.90
21772;DHT22;11047;47.904;8.110;2022-07-29T10:48:27;23.30;99.90
21772;DHT22;11047;47.904;8.110;2022-07-29T10:50:59;23.10;99.90
21772;DHT22;11047;47.904;8.110;2022-07-29T10:53:47;23.20;99.90
21772;DHT22;11047;47.904;8.110;2022-07-29T10:56:25;22.90;99.90
21772;DHT22;11047;47.904;8.110;2022-07-29T10:59:25;22.80;99.90
21772;DHT22;11047;47.904;8.110;2022-07-29T11:01:53;22.90;99.90
21772;DHT22;11047;47.904;8.110;2022-07-29T11:07:25;23.00;99.90
21772;DHT22;11047;47.904;8.110;2022-07-29T11:10:19;23.00;99.90
21772;DHT22;11047;47.904;8.110;2022-07-29T11:12:48;23.00;99.90
21772;DHT22;11047;47.904;8.110;2022-07-29T11:15:19;23.10;99.90
21772;DHT22;11047;47.904;8.110;2022-07-29T11:18:14;23.40;99.90
21772;DHT22;11047;47.904;8.110;2022-07-29T11:20:43;23.30;99.90
21772;DHT22;11047;47.904;8.110;2022-07-29T11:23:25;23.20;99.90
21772;DHT22;11047;47.904;8.110;2022-07-29T11:26:18;23.30;99.90
21772;DHT22;11047;47.904;8.110;2022-07-29T11:28:53;23.20;99.90
21772;DHT22;11047;47.904;8.110;2022-07-29T11:31:35;23.30;99.90
21772;DHT22;11047;47.904;8.110;2022-07-29T11:34:23;23.20;99.90
21772;DHT22;11047;47.904;8.110;2022-07-29T11:37:16;22.80;99.90
21772;DHT22;11047;47.904;8.110;2022-07-29T11:39:44;22.50;99.90
21772;DHT22;11047;47.904;8.110;2022-07-29T11:42:37;22.60;99.90
21772;DHT22;11047;47.904;8.110;2022-07-29T11:45:05;22.50;99.90
21772;DHT22;11047;47.904;8.110;2022-07-29T11:47:36;22.40;99.90
21772;DHT22;11047;47.904;8.110;2022-07-29T11:50:05;22.30;99.90
21772;DHT22;11047;47.904;8.110;2022-07-29T11:52:34;22.20;99.90
21772;DHT22;11047;47.904;8.110;2022-07-29T11:55:05;22.20;99.90
21772;DHT22;11047;47.904;8.110;2022-07-29T11:57:34;22.00;99.90
21772;DHT22;11047;47.904;8.110;2022-07-29T12:00:01;22.00;99.90
21772;DHT22;11047;47.904;8.110;2022-07-29T12:02:40;22.10;99.90
21772;DHT22;11047;47.904;8.110;2022-07-29T12:05:08;21.90;99.90
21772;DHT22;11047;47.904;8.110;2022-07-29T12:07:37;22.00;99.90
21772;DHT22;11047;47.904;8.110;2022-07-29T12:10:05;22.10;99.90
21772;DHT22;11047;47.904;8.110;2022-07-29T12:12:33;22.10;99.90
21772;DHT22;11047;47.904;8.110;2022-07-29T12:15:11;22.20;99.90
21772;DHT22;11047;47.904;8.110;2022-07-29T12:17:40;22.30;99.90
21772;DHT22;11047;47.904;8.110;2022-07-29T12:20:07;22.20;99.90
21772;DHT22;11047;47.904;8.110;2022-07-29T12:22:36;22.00;99.90
21772;DHT22;11047;47.904;8.110;2022-07-29T12:25:06;21.80;99.90
21772;DHT22;11047;47.904;8.110;2022-07-29T12:27:34;21.70;99.90
21772;DHT22;11047;47.904;8.110;2022-07-29T12:30:04;21.70;99.90
21772;DHT22;11047;47.904;8.110;2022-07-29T12:32:33;21.60;99.90
21772;DHT22;11047;47.904;8.110;2022-07-29T12:35:04;21.50;99.90
21772;DHT22;11047;47.904;8.110;2022-07-29T12:37:32;21.50;99.90
21772;DHT22;11047;47.904;8.110;2022-07-29T12:39:59;21.30;99.90
21772;DHT22;11047;47.904;8.110;2022-07-29T12:42:27;21.10;99.90
21772;DHT22;11047;47.904;8.110;2022-07-29T12:44:53;21.10;99.90
21772;DHT22;11047;47.904;8.110;2022-07-29T12:47:21;21.10;99.90
21772;DHT22;11047;47.904;8.110;2022-07-29T12:49:49;21.20;99.90
21772;DHT22;11047;47.904;8.110;2022-07-29T12:52:29;21.00;99.90
21772;DHT22;11047;47.904;8.110;2022-07-29T12:54:57;20.90;99.90
21772;DHT22;11047;47.904;8.110;2022-07-29T12:57:24;20.90;99.90
21772;DHT22;11047;47.904;8.110;2022-07-29T13:00:05;21.00;99.90
21772;DHT22;11047;47.904;8.110;2022-07-29T13:02:34;20.90;99.90
21772;DHT22;11047;47.904;8.110;2022-07-29T13:05:02;20.70;99.90
21772;DHT22;11047;47.904;8.110;2022-07-29T13:07:32;20.50;99.90
21772;DHT22;11047;47.904;8.110;2022-07-29T13:10:12;20.40;99.90
21772;DHT22;11047;47.904;8.110;2022-07-29T13:15:21;20.20;99.90
21772;DHT22;11047;47.904;8.110;2022-07-29T13:17:48;20.20;99.90
21772;DHT22;11047;47.904;8.110;2022-07-29T13:20:15;20.10;99.90
21772;DHT22;11047;47.904;8.110;2022-07-29T13:22:47;20.10;99.90
21772;DHT22;11047;47.904;8.110;2022-07-29T13:25:14;20.20;99.90
21772;DHT22;11047;47.904;8.110;2022-07-29T13:27:49;20.10;99.90
21772;DHT22;11047;47.904;8.110;2022-07-29T13:30:16;20.20;99.90
21772;DHT22;11047;47.904;8.110;2022-07-29T13:32:43;20.30;99.90
21772;DHT22;11047;47.904;8.110;2022-07-29T13:35:11;20.40;99.90
21772;DHT22;11047;47.904;8.110;2022-07-29T13:37:39;20.50;99.90
21772;DHT22;11047;47.904;8.110;2022-07-29T13:40:09;20.50;99.90
21772;DHT22;11047;47.904;8.110;2022-07-29T13:42:36;20.50;99.90
21772;DHT22;11047;47.904;8.110;2022-07-29T13:45:04;20.50;99.90
21772;DHT22;11047;47.904;8.110;2022-07-29T13:47:32;20.60;99.90
21772;DHT22;11047;47.904;8.110;2022-07-29T13:49:59;20.60;99.90
21772;DHT22;11047;47.904;8.110;2022-07-29T13:52:26;20.70;99.90
21772;DHT22;11047;47.904;8.110;2022-07-29T13:54:53;20.70;99.90
21772;DHT22;11047;47.904;8.110;2022-07-29T13:57:21;20.60;99.90
21772;DHT22;11047;47.904;8.110;2022-07-29T13:59:48;20.70;99.90
21772;DHT22;11047;47.904;8.110;2022-07-29T14:02:16;20.80;99.90
21772;DHT22;11047;47.904;8.110;2022-07-29T14:04:43;21.00;99.90
21772;DHT22;11047;47.904;8.110;2022-07-29T14:07:10;21.10;99.90
21772;DHT22;11047;47.904;8.110;2022-07-29T14:09:37;21.20;99.90
21772;DHT22;11047;47.904;8.110;2022-07-29T14:12:04;21.10;99.90
21772;DHT22;11047;47.904;8.110;2022-07-29T14:14:32;21.00;99.90
21772;DHT22;11047;47.904;8.110;2022-07-29T14:17:01;21.10;99.90
21772;DHT22;11047;47.904;8.110;2022-07-29T14:19:28;21.20;99.90
21772;DHT22;11047;47.904;8.110;2022-07-29T14:21:57;21.10;99.90
21772;DHT22;11047;47.904;8.110;2022-07-29T14:24:24;21.20;99.90
21772;DHT22;11047;47.904;8.110;2022-07-29T14:26:51;21.10;99.90
21772;DHT22;11047;47.904;8.110;2022-07-29T14:29:17;21.20;99.90
21772;DHT22;11047;47.904;8.110;2022-07-29T14:31:46;21.20;99.90
21772;DHT22;11047;47.904;8.110;2022-07-29T14:34:13;21.10;99.90
21772;DHT22;11047;47.904;8.110;2022-07-29T14:36:40;21.10;99.90
21772;DHT22;11047;47.904;8.110;2022-07-29T14:39:07;21.00;99.90
21772;DHT22;11047;47.904;8.110;2022-07-29T14:41:34;21.00;99.90
21772;DHT22;11047;47.904;8.110;2022-07-29T14:44:01;21.00;99.90
21772;DHT22;11047;47.904;8.110;2022-07-29T14:46:28;21.10;99.90
21772;DHT22;11047;47.904;8.110;2022-07-29T14:48:56;21.20;99.90
21772;DHT22;11047;47.904;8.110;2022-07-29T14:51:23;21.30;99.90
21772;DHT22;11047;47.904;8.110;2022-07-29T14:53:50;21.40;99.90
21772;DHT22;11047;47.904;8.110;2022-07-29T14:56:17;21.30;99.90
21772;DHT22;11047;47.904;8.110;2022-07-29T14:58:44;21.40;99.90
21772;DHT22;11047;47.904;8.110;2022-07-29T15:01:11;21.20;99.90
21772;DHT22;11047;47.904;8.110;2022-07-29T15:03:38;21.10;99.90
21772;DHT22;11047;47.904;8.110;2022-07-29T15:06:06;21.00;99.90
21772;DHT22;11047;47.904;8.110;2022-07-29T15:08:33;20.90;99.90
21772;DHT22;11047;47.904;8.110;2022-07-29T15:11:00;21.00;99.90
21772;DHT22;11047;47.904;8.110;2022-07-29T15:13:27;21.00;99.90
21772;DHT22;11047;47.904;8.110;2022-07-29T15:15:54;21.00;99.90
21772;DHT22;11047;47.904;8.110;2022-07-29T15:18:20;21.00;99.90
21772;DHT22;11047;47.904;8.110;2022-07-29T15:20:47;21.00;99.90
21772;DHT22;11047;47.904;8.110;2022-07-29T15:23:16;21.20;99.90
21772;DHT22;11047;47.904;8.110;2022-07-29T15:25:42;21.20;99.90
21772;DHT22;11047;47.904;8.110;2022-07-29T15:28:09;21.20;99.90
21772;DHT22;11047;47.904;8.110;2022-07-29T15:30:37;21.20;99.90
21772;DHT22;11047;47.904;8.110;2022-07-29T15:33:07;21.10;99.90
21772;DHT22;11047;47.904;8.110;2022-07-29T15:35:34;21.00;99.90
21772;DHT22;11047;47.904;8.110;2022-07-29T15:38:01;20.90;99.90
21772;DHT22;11047;47.904;8.110;2022-07-29T15:40:30;20.70;99.90
21772;DHT22;11047;47.904;8.110;2022-07-29T15:42:57;20.70;99.90
21772;DHT22;11047;47.904;8.110;2022-07-29T15:45:26;20.60;99.90
21772;DHT22;11047;47.904;8.110;2022-07-29T15:47:53;20.50;99.90
21772;DHT22;11047;47.904;8.110;2022-07-29T15:50:20;20.40;99.90